Time;durP1;ratioP1;P1;durP2;ratioP2;P2;SDS_P1;SDS_P2;PMS_P1;PMS_P2;Temp;Humidity;BMP_temperature;BMP_pressure;BME280_temperature;BME280_humidity;BME280_pressure;Samples;Min_cycle;Max_cycle;Signal;HPM_P1;HPM_P2
2022/10/22 00:02:07;;;;;;;2.60;1.63;;;;;;;;;;4981130;28;20112;-71
2022/10/22 00:04:33;;;;;;;2.83;1.60;;;;;;;;;;4995320;28;20594;-71
2022/10/22 00:06:59;;;;;;;4.80;1.83;;;;;;;;;;4980536;28;20054;-71
2022/10/22 00:09:24;;;;;;;2.90;1.42;;;;;;;;;;4980416;28;20069;-71
2022/10/22 00:11:50;;;;;;;5.13;1.48;;;;;;;;;;4981095;28;20101;-71
2022/10/22 00:14:16;;;;;;;10.63;1.95;;;;;;;;;;4992753;28;20045;-71
2022/10/22 00:16:41;;;;;;;1.55;1.38;;;;;;;;;;4985837;28;20760;-71
2022/10/22 00:19:08;;;;;;;4.13;1.40;;;;;;;;;;4980974;28;20081;-71
2022/10/22 00:21:34;;;;;;;1.60;1.50;;;;;;;;;;4980967;28;20498;-71
2022/10/22 00:24:00;;;;;;;2.60;1.52;;;;;;;;;;4985996;28;20144;-71
2022/10/22 00:26:25;;;;;;;2.28;1.50;;;;;;;;;;4985193;28;20180;-71
2022/10/22 00:28:52;;;;;;;2.67;1.70;;;;;;;;;;4995575;28;20038;-71
2022/10/22 00:31:18;;;;;;;2.35;1.00;;;;;;;;;;4979334;28;20499;-70
2022/10/22 00:33:46;;;;;;;1.50;1.10;;;;;;;;;;4981850;28;20510;-70
2022/10/22 00:36:13;;;;;;;2.78;1.40;;;;;;;;;;4984442;28;20414;-71
2022/10/22 00:38:38;;;;;;;3.22;1.10;;;;;;;;;;4983646;28;20559;-71
2022/10/22 00:41:04;;;;;;;8.30;3.05;;;;;;;;;;4984076;28;20136;-71
2022/10/22 00:43:29;;;;;;;2.15;1.00;;;;;;;;;;4983402;28;20061;-70
2022/10/22 00:45:55;;;;;;;4.03;1.00;;;;;;;;;;4984122;28;20053;-70
2022/10/22 00:48:32;;;;;;;2.03;1.23;;;;;;;;;;4984587;28;20792;-70
2022/10/22 00:51:00;;;;;;;2.90;1.23;;;;;;;;;;4984703;28;20050;-70
2022/10/22 00:53:38;;;;;;;5.18;1.25;;;;;;;;;;4983574;28;21250;-70
2022/10/22 00:56:04;;;;;;;2.38;1.17;;;;;;;;;;4984000;28;20042;-70
2022/10/22 00:58:33;;;;;;;5.40;1.33;;;;;;;;;;4983641;28;20169;-70
2022/10/22 01:00:59;;;;;;;2.83;0.95;;;;;;;;;;4986524;28;20050;-70
2022/10/22 01:03:25;;;;;;;1.75;1.23;;;;;;;;;;4983093;28;20053;-70
2022/10/22 01:05:58;;;;;;;2.30;1.35;;;;;;;;;;4983847;28;20055;-71
2022/10/22 01:08:36;;;;;;;3.22;1.10;;;;;;;;;;4983716;28;20074;-70
2022/10/22 01:11:20;;;;;;;1.25;0.90;;;;;;;;;;4986866;28;20104;-70
2022/10/22 01:14:01;;;;;;;5.75;1.15;;;;;;;;;;4995920;28;20054;-71
2022/10/22 01:16:49;;;;;;;0.80;0.73;;;;;;;;;;4983506;28;20133;-70
2022/10/22 01:19:27;;;;;;;1.08;0.95;;;;;;;;;;4975858;28;20376;-71
2022/10/22 01:22:04;;;;;;;3.53;1.20;;;;;;;;;;4986094;28;20067;-71
2022/10/22 01:24:50;;;;;;;3.15;0.90;;;;;;;;;;4993675;28;20198;-71
2022/10/22 01:27:18;;;;;;;8.70;1.20;;;;;;;;;;4985041;28;20132;-70
2022/10/22 01:30:07;;;;;;;2.60;0.98;;;;;;;;;;4988593;28;20103;-71
2022/10/22 01:32:44;;;;;;;3.35;1.55;;;;;;;;;;4984224;28;20038;-70
2022/10/22 01:35:12;;;;;;;2.85;1.10;;;;;;;;;;4984700;28;20046;-71
2022/10/22 01:38:01;;;;;;;3.33;1.38;;;;;;;;;;4986630;28;20573;-70
2022/10/22 01:40:28;;;;;;;2.75;1.27;;;;;;;;;;4982821;28;20054;-71
2022/10/22 01:43:02;;;;;;;3.00;1.38;;;;;;;;;;4983172;28;20046;-70
2022/10/22 01:45:31;;;;;;;2.60;1.30;;;;;;;;;;4982155;28;20100;-71
2022/10/22 01:48:15;;;;;;;2.17;1.35;;;;;;;;;;4997094;28;20050;-71
2022/10/22 01:50:43;;;;;;;1.85;1.25;;;;;;;;;;4989592;28;20189;-71
2022/10/22 01:53:24;;;;;;;4.47;1.00;;;;;;;;;;4982299;28;20221;-71
2022/10/22 01:56:11;;;;;;;1.98;1.20;;;;;;;;;;4982774;28;20046;-70
2022/10/22 01:58:55;;;;;;;4.68;0.90;;;;;;;;;;4981761;28;20129;-70
2022/10/22 02:01:48;;;;;;;1.10;0.82;;;;;;;;;;4982022;28;20672;-71
2022/10/22 02:04:23;;;;;;;1.08;0.98;;;;;;;;;;4982620;28;20136;-70
2022/10/22 02:06:51;;;;;;;1.35;0.98;;;;;;;;;;4982867;28;20503;-70
2022/10/22 02:09:20;;;;;;;2.30;0.80;;;;;;;;;;4981486;28;20081;-71
2022/10/22 02:11:46;;;;;;;3.05;1.00;;;;;;;;;;4982301;28;20100;-70
2022/10/22 02:14:14;;;;;;;5.35;1.00;;;;;;;;;;4982801;28;20047;-71
2022/10/22 02:16:44;;;;;;;2.63;1.08;;;;;;;;;;4982265;28;20057;-70
2022/10/22 02:19:26;;;;;;;2.00;0.98;;;;;;;;;;4981294;28;20562;-71
2022/10/22 02:21:52;;;;;;;2.70;0.73;;;;;;;;;;4981625;28;20050;-71
2022/10/22 02:24:18;;;;;;;1.52;0.80;;;;;;;;;;4985054;28;21095;-71
2022/10/22 02:27:18;;;;;;;4.07;0.93;;;;;;;;;;4982112;28;20505;-71
2022/10/22 02:29:52;;;;;;;1.80;0.88;;;;;;;;;;4994924;28;20046;-71
2022/10/22 02:32:23;;;;;;;4.90;0.90;;;;;;;;;;4985006;28;20043;-70
2022/10/22 02:34:49;;;;;;;1.98;0.90;;;;;;;;;;4982240;28;20042;-70
2022/10/22 02:37:17;;;;;;;3.35;0.90;;;;;;;;;;4981288;28;20046;-71
2022/10/22 02:39:43;;;;;;;1.55;0.70;;;;;;;;;;4981827;28;20054;-71
2022/10/22 02:42:11;;;;;;;2.88;0.82;;;;;;;;;;4981452;28;20053;-70
2022/10/22 02:44:36;;;;;;;2.00;0.90;;;;;;;;;;4981947;28;20095;-70
2022/10/22 02:47:02;;;;;;;3.72;0.82;;;;;;;;;;4996683;28;20042;-70
2022/10/22 02:49:27;;;;;;;2.75;1.15;;;;;;;;;;4981457;28;20196;-71
2022/10/22 02:51:53;;;;;;;1.27;0.90;;;;;;;;;;4981723;28;20388;-71
2022/10/22 02:54:18;;;;;;;1.33;1.23;;;;;;;;;;4981600;28;20399;-70
2022/10/22 02:56:43;;;;;;;1.83;1.08;;;;;;;;;;4980972;28;20121;-71
2022/10/22 02:59:09;;;;;;;2.05;1.00;;;;;;;;;;4981037;28;20100;-70
2022/10/22 03:01:34;;;;;;;6.30;1.00;;;;;;;;;;4981424;28;20519;-71
2022/10/22 03:04:00;;;;;;;4.50;0.80;;;;;;;;;;4981383;28;20525;-71
2022/10/22 03:06:25;;;;;;;7.65;1.00;;;;;;;;;;4980804;28;20944;-70
2022/10/22 03:08:51;;;;;;;2.63;1.00;;;;;;;;;;4981402;28;20050;-70
2022/10/22 03:11:16;;;;;;;5.00;1.20;;;;;;;;;;4980948;28;20046;-70
2022/10/22 03:13:41;;;;;;;3.63;0.88;;;;;;;;;;4981688;28;20059;-71
2022/10/22 03:16:07;;;;;;;2.85;1.05;;;;;;;;;;4980609;28;20057;-69
2022/10/22 03:18:33;;;;;;;1.92;1.20;;;;;;;;;;4981213;28;20047;-74
2022/10/22 03:21:03;;;;;;;2.15;1.20;;;;;;;;;;4981182;28;20046;-69
2022/10/22 03:23:30;;;;;;;2.15;1.10;;;;;;;;;;4978157;28;20061;-73
2022/10/22 03:25:55;;;;;;;3.75;0.77;;;;;;;;;;4986127;28;20054;-74
2022/10/22 03:28:21;;;;;;;6.25;1.05;;;;;;;;;;4980670;28;20065;-68
2022/10/22 03:30:47;;;;;;;4.80;1.40;;;;;;;;;;4981011;28;20046;-68
2022/10/22 03:33:12;;;;;;;3.00;1.30;;;;;;;;;;4978987;28;20137;-68
2022/10/22 03:35:44;;;;;;;3.45;1.00;;;;;;;;;;4981053;28;20050;-68
2022/10/22 03:38:09;;;;;;;2.15;1.00;;;;;;;;;;4980233;28;20046;-68
2022/10/22 03:40:35;;;;;;;4.28;1.33;;;;;;;;;;4981327;28;20046;-70
2022/10/22 03:43:00;;;;;;;3.45;0.98;;;;;;;;;;4981005;28;20038;-68
2022/10/22 03:45:26;;;;;;;3.50;0.95;;;;;;;;;;4980802;28;20150;-68
2022/10/22 03:47:51;;;;;;;2.13;1.15;;;;;;;;;;4980053;28;20069;-71
2022/10/22 03:50:16;;;;;;;2.70;1.10;;;;;;;;;;4981391;28;20057;-68
2022/10/22 03:52:42;;;;;;;4.03;1.00;;;;;;;;;;4980637;28;20046;-69
2022/10/22 03:55:08;;;;;;;4.97;1.00;;;;;;;;;;4980883;28;20058;-71
2022/10/22 03:57:33;;;;;;;3.90;1.10;;;;;;;;;;4989407;28;20132;-73
2022/10/22 03:59:59;;;;;;;4.20;1.23;;;;;;;;;;4993612;28;20451;-70
2022/10/22 04:02:24;;;;;;;2.72;1.67;;;;;;;;;;4989476;28;20141;-70
2022/10/22 04:04:50;;;;;;;1.48;0.63;;;;;;;;;;4984788;28;20054;-73
2022/10/22 04:07:15;;;;;;;1.10;0.88;;;;;;;;;;4990568;28;20154;-70
2022/10/22 04:09:41;;;;;;;2.95;1.02;;;;;;;;;;4994354;28;20964;-69
2022/10/22 04:12:08;;;;;;;2.67;1.30;;;;;;;;;;4984748;28;20061;-69
2022/10/22 04:14:34;;;;;;;5.10;0.90;;;;;;;;;;4984700;28;20049;-69
2022/10/22 04:17:00;;;;;;;0.95;0.65;;;;;;;;;;4984813;28;20047;-70
2022/10/22 04:19:25;;;;;;;3.95;0.77;;;;;;;;;;4983758;28;20049;-70
2022/10/22 04:21:51;;;;;;;3.58;0.90;;;;;;;;;;4983820;28;20054;-71
2022/10/22 04:24:16;;;;;;;3.85;0.52;;;;;;;;;;4984524;28;20522;-69
2022/10/22 04:26:42;;;;;;;2.30;0.90;;;;;;;;;;4989956;28;20056;-70
2022/10/22 04:29:08;;;;;;;1.10;0.63;;;;;;;;;;4983648;28;20541;-72
2022/10/22 04:31:33;;;;;;;2.45;0.63;;;;;;;;;;4989115;28;20045;-74
2022/10/22 04:33:59;;;;;;;3.35;0.73;;;;;;;;;;4985101;28;20046;-70
2022/10/22 04:36:26;;;;;;;1.15;0.77;;;;;;;;;;4984141;28;20038;-69
2022/10/22 04:39:00;;;;;;;1.77;0.68;;;;;;;;;;4984186;28;20061;-69
2022/10/22 04:41:28;;;;;;;1.35;0.60;;;;;;;;;;4983579;28;20144;-73
2022/10/22 04:43:55;;;;;;;1.92;0.70;;;;;;;;;;4983481;28;20513;-71
2022/10/22 04:46:21;;;;;;;1.85;0.60;;;;;;;;;;4984064;28;20050;-68
2022/10/22 04:48:47;;;;;;;1.80;0.60;;;;;;;;;;4990764;28;20942;-70
2022/10/22 04:51:15;;;;;;;1.63;0.75;;;;;;;;;;4984281;28;20058;-71
2022/10/22 04:53:41;;;;;;;1.02;0.70;;;;;;;;;;4988081;28;20141;-70
2022/10/22 04:56:08;;;;;;;1.83;0.80;;;;;;;;;;4986570;28;20136;-70
2022/10/22 04:58:33;;;;;;;2.72;0.98;;;;;;;;;;4988618;28;20503;-70
2022/10/22 05:00:59;;;;;;;2.35;0.68;;;;;;;;;;4984293;28;21384;-70
2022/10/22 05:03:24;;;;;;;0.80;0.60;;;;;;;;;;4983933;28;20125;-70
2022/10/22 05:06:40;;;;;;;0.88;0.70;;;;;;;;;;5010555;28;20044;-70
2022/10/22 05:09:10;;;;;;;0.85;0.50;;;;;;;;;;4981760;28;20045;-71
2022/10/22 05:11:37;;;;;;;2.42;0.60;;;;;;;;;;4983184;28;20042;-70
2022/10/22 05:14:05;;;;;;;1.65;0.95;;;;;;;;;;4983454;28;20046;-69
2022/10/22 05:16:32;;;;;;;0.98;0.60;;;;;;;;;;4983302;28;20064;-70
2022/10/22 05:18:59;;;;;;;3.70;0.50;;;;;;;;;;4981468;28;20185;-70
2022/10/22 05:21:25;;;;;;;3.35;0.60;;;;;;;;;;4982876;28;20100;-69
2022/10/22 05:23:51;;;;;;;0.45;0.45;;;;;;;;;;4984432;28;20045;-69
2022/10/22 05:26:18;;;;;;;0.85;0.50;;;;;;;;;;4983488;28;20042;-69
2022/10/22 05:28:45;;;;;;;3.00;0.75;;;;;;;;;;4984083;28;20046;-69
2022/10/22 05:31:12;;;;;;;4.15;0.70;;;;;;;;;;4982754;28;20606;-70
2022/10/22 05:33:38;;;;;;;1.45;0.50;;;;;;;;;;4983095;28;20082;-70
2022/10/22 05:36:05;;;;;;;0.40;0.40;;;;;;;;;;4983481;28;20074;-69
2022/10/22 05:38:34;;;;;;;1.33;0.70;;;;;;;;;;4986722;28;20414;-70
2022/10/22 05:41:06;;;;;;;1.92;0.47;;;;;;;;;;4982835;28;20049;-69
2022/10/22 05:43:31;;;;;;;;;;;;;;;;;;4983563;28;20050;-69
2022/10/22 05:46:01;;;;;;;1.48;0.50;;;;;;;;;;4983844;28;19936;-71
2022/10/22 05:48:27;;;;;;;1.25;0.38;;;;;;;;;;4983886;28;20080;-72
2022/10/22 05:50:52;;;;;;;1.00;0.40;;;;;;;;;;4987850;28;20462;-71
2022/10/22 05:53:18;;;;;;;4.78;0.50;;;;;;;;;;4981756;28;20050;-72
2022/10/22 05:55:46;;;;;;;1.40;0.50;;;;;;;;;;4984462;28;20041;-70
2022/10/22 05:58:13;;;;;;;0.65;0.65;;;;;;;;;;4984415;28;20053;-72
2022/10/22 06:00:38;;;;;;;5.28;0.70;;;;;;;;;;4986030;28;20050;-71
2022/10/22 06:03:04;;;;;;;3.45;0.75;;;;;;;;;;4981187;28;20046;-71
2022/10/22 06:05:33;;;;;;;2.90;0.60;;;;;;;;;;4980629;28;20058;-72
2022/10/22 06:07:59;;;;;;;0.52;0.32;;;;;;;;;;4980935;28;20049;-72
2022/10/22 06:10:25;;;;;;;3.50;0.70;;;;;;;;;;4981828;28;20089;-71
2022/10/22 06:12:50;;;;;;;12.65;0.75;;;;;;;;;;4986328;28;20081;-72
2022/10/22 06:15:17;;;;;;;5.93;0.50;;;;;;;;;;4980815;28;20046;-70
2022/10/22 06:17:43;;;;;;;2.50;0.30;;;;;;;;;;4980511;28;20061;-71
2022/10/22 06:20:10;;;;;;;5.63;0.50;;;;;;;;;;4988090;28;20458;-72
2022/10/22 06:22:35;;;;;;;1.55;0.25;;;;;;;;;;4981445;28;20049;-70
2022/10/22 06:25:01;;;;;;;0.82;0.50;;;;;;;;;;4982618;28;20050;-71
2022/10/22 06:27:26;;;;;;;0.32;0.30;;;;;;;;;;4980771;28;22284;-71
2022/10/22 06:29:52;;;;;;;0.65;0.30;;;;;;;;;;4980162;28;20133;-71
2022/10/22 06:32:17;;;;;;;0.30;0.30;;;;;;;;;;4978584;28;20145;-71
2022/10/22 06:34:42;;;;;;;0.45;0.32;;;;;;;;;;4985389;28;20096;-71
2022/10/22 06:37:09;;;;;;;2.38;0.40;;;;;;;;;;4984186;28;20049;-73
2022/10/22 06:39:34;;;;;;;1.17;0.38;;;;;;;;;;4981726;28;20380;-72
2022/10/22 06:42:00;;;;;;;0.52;0.17;;;;;;;;;;4979364;28;20038;-73
2022/10/22 06:44:31;;;;;;;1.23;0.40;;;;;;;;;;4993435;28;20081;-72
2022/10/22 06:46:57;;;;;;;6.63;0.50;;;;;;;;;;4980351;28;20050;-73
2022/10/22 06:49:22;;;;;;;1.63;0.30;;;;;;;;;;4978706;28;20046;-71
2022/10/22 06:51:54;;;;;;;0.35;0.30;;;;;;;;;;4980060;28;20093;-72
2022/10/22 06:54:20;;;;;;;0.35;0.30;;;;;;;;;;4978820;28;20046;-70
2022/10/22 06:56:46;;;;;;;0.55;0.38;;;;;;;;;;4979997;28;20042;-73
2022/10/22 06:59:12;;;;;;;4.63;0.60;;;;;;;;;;4978189;28;20060;-71
2022/10/22 07:01:38;;;;;;;0.40;0.35;;;;;;;;;;4980348;28;20054;-71
2022/10/22 07:04:04;;;;;;;0.40;0.40;;;;;;;;;;4979788;28;20054;-72
2022/10/22 07:06:29;;;;;;;0.40;0.40;;;;;;;;;;4978832;28;20148;-70
2022/10/22 07:08:57;;;;;;;2.35;0.80;;;;;;;;;;4978374;28;20605;-73
2022/10/22 07:11:25;;;;;;;2.92;0.73;;;;;;;;;;4983738;28;20164;-73
2022/10/22 07:13:54;;;;;;;0.47;0.47;;;;;;;;;;4984962;28;20068;-69
2022/10/22 07:16:19;;;;;;;3.80;0.63;;;;;;;;;;4992845;28;20472;-69
2022/10/22 07:18:45;;;;;;;2.60;0.55;;;;;;;;;;4978594;28;20054;-71
2022/10/22 07:21:13;;;;;;;2.63;1.08;;;;;;;;;;4979122;28;20050;-72
2022/10/22 07:23:39;;;;;;;1.20;1.10;;;;;;;;;;4979632;28;20100;-71
2022/10/22 07:26:06;;;;;;;1.65;1.50;;;;;;;;;;4979393;28;20046;-71
2022/10/22 07:28:32;;;;;;;9.40;1.80;;;;;;;;;;4978606;28;20050;-71
2022/10/22 07:30:59;;;;;;;3.90;1.35;;;;;;;;;;4980280;28;20156;-70
2022/10/22 07:33:25;;;;;;;1.90;1.67;;;;;;;;;;4984644;28;20054;-72
2022/10/22 07:35:57;;;;;;;2.78;1.50;;;;;;;;;;4981786;28;20053;-71
2022/10/22 07:38:22;;;;;;;3.00;1.20;;;;;;;;;;4997377;28;20050;-71
2022/10/22 07:40:48;;;;;;;1.10;1.10;;;;;;;;;;4986589;28;20034;-71
2022/10/22 07:43:13;;;;;;;1.45;1.23;;;;;;;;;;4989900;28;20100;-72
2022/10/22 07:45:40;;;;;;;3.38;1.10;;;;;;;;;;4992501;28;20104;-71
2022/10/22 07:48:06;;;;;;;1.58;1.42;;;;;;;;;;4992654;28;20054;-71
2022/10/22 07:50:32;;;;;;;1.77;0.70;;;;;;;;;;4986011;28;20137;-72
2022/10/22 07:52:57;;;;;;;2.15;1.00;;;;;;;;;;4989574;28;20485;-74
2022/10/22 07:55:22;;;;;;;2.45;1.77;;;;;;;;;;4984205;28;20057;-71
2022/10/22 07:57:48;;;;;;;3.22;2.20;;;;;;;;;;4984962;28;20046;-74
2022/10/22 08:00:14;;;;;;;3.13;1.95;;;;;;;;;;4984305;28;20050;-72
2022/10/22 08:02:39;;;;;;;4.95;1.20;;;;;;;;;;4988692;28;20117;-71
2022/10/22 08:05:05;;;;;;;3.83;1.10;;;;;;;;;;4984904;28;20046;-71
2022/10/22 08:07:30;;;;;;;2.65;0.80;;;;;;;;;;4984036;28;20169;-73
2022/10/22 08:09:56;;;;;;;4.07;0.57;;;;;;;;;;4984725;28;20046;-72
2022/10/22 08:12:21;;;;;;;2.50;0.47;;;;;;;;;;4987781;28;20582;-72
2022/10/22 08:14:47;;;;;;;3.80;0.38;;;;;;;;;;4984693;28;20046;-72
2022/10/22 08:17:12;;;;;;;0.88;0.52;;;;;;;;;;4983706;28;20042;-72
2022/10/22 08:19:37;;;;;;;3.50;0.68;;;;;;;;;;4984196;28;20058;-71
2022/10/22 08:22:03;;;;;;;3.47;0.68;;;;;;;;;;4984185;28;20081;-71
2022/10/22 08:24:28;;;;;;;0.68;0.50;;;;;;;;;;4985528;28;20119;-71
2022/10/22 08:26:54;;;;;;;7.97;0.65;;;;;;;;;;4984292;28;20065;-72
2022/10/22 08:29:23;;;;;;;2.38;0.50;;;;;;;;;;4983635;28;20042;-71
2022/10/22 08:31:50;;;;;;;0.55;0.50;;;;;;;;;;4984234;28;20057;-72
2022/10/22 08:34:15;;;;;;;0.40;0.40;;;;;;;;;;4988491;28;20448;-74
2022/10/22 08:36:41;;;;;;;5.57;0.50;;;;;;;;;;4992009;28;20095;-71
2022/10/22 08:39:06;;;;;;;1.67;0.30;;;;;;;;;;4984144;28;20042;-73
2022/10/22 08:41:40;;;;;;;3.20;0.50;;;;;;;;;;4983803;28;20755;-73
2022/10/22 08:44:23;;;;;;;1.40;0.40;;;;;;;;;;4987881;28;20038;-71
2022/10/22 08:47:13;;;;;;;3.08;0.45;;;;;;;;;;4983755;28;20646;-70
2022/10/22 08:49:41;;;;;;;0.73;0.60;;;;;;;;;;4990689;28;20049;-71
2022/10/22 08:52:12;;;;;;;2.58;0.60;;;;;;;;;;4984327;28;20467;-71
2022/10/22 08:54:50;;;;;;;1.00;0.53;;;;;;;;;;4983630;28;20058;-70
2022/10/22 08:57:25;;;;;;;1.10;0.50;;;;;;;;;;4982503;28;20282;-70
2022/10/22 09:00:02;;;;;;;1.13;0.60;;;;;;;;;;4983992;28;20054;-71
2022/10/22 09:02:40;;;;;;;3.30;0.57;;;;;;;;;;4987026;28;20070;-70
2022/10/22 09:05:33;;;;;;;2.65;0.70;;;;;;;;;;4990431;28;20056;-71
2022/10/22 09:07:59;;;;;;;3.45;0.60;;;;;;;;;;4998493;28;20173;-69
2022/10/22 09:10:30;;;;;;;0.80;0.40;;;;;;;;;;4987032;28;20136;-69
2022/10/22 09:12:56;;;;;;;1.02;0.60;;;;;;;;;;4983743;28;20053;-68
2022/10/22 09:15:21;;;;;;;0.65;0.60;;;;;;;;;;4982915;28;20058;-68
2022/10/22 09:18:18;;;;;;;1.25;0.80;;;;;;;;;;4987568;28;20057;-69
2022/10/22 09:20:50;;;;;;;0.70;0.70;;;;;;;;;;4983703;28;20057;-68
2022/10/22 09:23:57;;;;;;;1.63;1.05;;;;;;;;;;4982695;28;20042;-69
2022/10/22 09:26:24;;;;;;;2.35;0.93;;;;;;;;;;4960388;28;20062;-68
2022/10/22 09:28:51;;;;;;;1.02;0.40;;;;;;;;;;4982540;28;20046;-69
2022/10/22 09:31:17;;;;;;;1.38;0.50;;;;;;;;;;4988594;28;20050;-69
2022/10/22 09:33:46;;;;;;;6.50;0.63;;;;;;;;;;4988035;28;20061;-69
2022/10/22 09:36:15;;;;;;;1.02;0.30;;;;;;;;;;4986160;28;20038;-69
2022/10/22 09:38:47;;;;;;;0.55;0.50;;;;;;;;;;4989792;28;20058;-69
2022/10/22 09:41:13;;;;;;;;;;;;;;;;;;4985924;28;20407;-69
2022/10/22 09:43:38;;;;;;;0.75;0.68;;;;;;;;;;4988231;28;19958;-69
2022/10/22 09:46:07;;;;;;;0.75;0.60;;;;;;;;;;4997818;28;20074;-69
2022/10/22 09:48:36;;;;;;;1.25;0.60;;;;;;;;;;4983008;28;20057;-71
2022/10/22 09:51:16;;;;;;;1.88;0.60;;;;;;;;;;4982945;28;20069;-71
2022/10/22 09:54:03;;;;;;;2.72;0.45;;;;;;;;;;4996085;28;20047;-73
2022/10/22 09:56:42;;;;;;;0.75;0.60;;;;;;;;;;4985074;28;20050;-71
2022/10/22 09:59:23;;;;;;;2.42;0.68;;;;;;;;;;4982640;28;20543;-71
2022/10/22 10:01:56;;;;;;;2.33;0.60;;;;;;;;;;4984196;28;20056;-69
2022/10/22 10:04:21;;;;;;;0.50;0.50;;;;;;;;;;4991006;28;20046;-68
2022/10/22 10:06:53;;;;;;;0.40;0.40;;;;;;;;;;4981587;28;20455;-69
2022/10/22 10:09:22;;;;;;;0.50;0.50;;;;;;;;;;4982140;28;20077;-68
2022/10/22 10:11:51;;;;;;;2.47;0.63;;;;;;;;;;4982581;28;20104;-68
2022/10/22 10:14:45;;;;;;;0.52;0.52;;;;;;;;;;4986154;28;20050;-68
2022/10/22 10:17:42;;;;;;;2.88;0.40;;;;;;;;;;4985595;28;20110;-69
2022/10/22 10:20:33;;;;;;;3.97;0.60;;;;;;;;;;4985310;28;20054;-68
2022/10/22 10:23:13;;;;;;;3.53;0.40;;;;;;;;;;4982233;28;20058;-68
2022/10/22 10:26:05;;;;;;;4.25;0.60;;;;;;;;;;4981830;28;20054;-68
2022/10/22 10:28:39;;;;;;;;;;;;;;;;;;4982079;28;20137;-68
2022/10/22 10:31:14;;;;;;;3.63;0.70;;;;;;;;;;4982143;28;19921;-70
2022/10/22 10:33:48;;;;;;;1.23;0.80;;;;;;;;;;4981946;28;20455;-68
2022/10/22 10:36:34;;;;;;;1.25;0.90;;;;;;;;;;4990086;28;20573;-69
2022/10/22 10:39:11;;;;;;;2.97;0.70;;;;;;;;;;4994213;28;20403;-70
2022/10/22 10:41:41;;;;;;;1.15;0.85;;;;;;;;;;4990213;28;20527;-70
2022/10/22 10:44:16;;;;;;;3.10;0.90;;;;;;;;;;4992576;28;20037;-69
2022/10/22 10:47:10;;;;;;;0.80;0.77;;;;;;;;;;4992723;28;20041;-71
2022/10/22 10:49:36;;;;;;;0.90;0.70;;;;;;;;;;4990874;28;20049;-71
2022/10/22 10:52:04;;;;;;;1.98;0.47;;;;;;;;;;4989073;28;20044;-73
2022/10/22 10:54:59;;;;;;;2.17;0.70;;;;;;;;;;4997971;28;20046;-74
2022/10/22 10:57:38;;;;;;;1.30;0.70;;;;;;;;;;4988213;28;20109;-71
2022/10/22 11:00:15;;;;;;;1.38;0.75;;;;;;;;;;4987901;28;20050;-73
2022/10/22 11:03:11;;;;;;;3.42;0.75;;;;;;;;;;4990300;28;20387;-73
2022/10/22 11:05:42;;;;;;;3.72;0.90;;;;;;;;;;4984965;28;20114;-72
2022/10/22 11:08:22;;;;;;;1.13;1.02;;;;;;;;;;4984846;28;20044;-72
2022/10/22 11:10:58;;;;;;;2.08;0.80;;;;;;;;;;4988417;28;20506;-75
2022/10/22 11:13:35;;;;;;;1.40;1.02;;;;;;;;;;4984746;28;20140;-71
2022/10/22 11:16:13;;;;;;;1.52;0.80;;;;;;;;;;4983968;28;20054;-70
2022/10/22 11:18:44;;;;;;;1.45;0.90;;;;;;;;;;4977196;28;20451;-75
2022/10/22 11:21:14;;;;;;;1.73;0.85;;;;;;;;;;4992921;28;20050;-71
2022/10/22 11:23:47;;;;;;;0.80;0.80;;;;;;;;;;4990841;28;20064;-71
2022/10/22 11:26:50;;;;;;;3.45;0.93;;;;;;;;;;4991206;28;20061;-70
2022/10/22 11:29:24;;;;;;;3.38;0.80;;;;;;;;;;4990722;28;20046;-72
2022/10/22 11:31:53;;;;;;;1.80;0.90;;;;;;;;;;4988570;28;20050;-73
2022/10/22 11:34:25;;;;;;;0.70;0.70;;;;;;;;;;4989127;28;20133;-72
2022/10/22 11:36:52;;;;;;;1.38;0.98;;;;;;;;;;4990597;28;20042;-76
2022/10/22 11:39:39;;;;;;;3.38;1.00;;;;;;;;;;4987852;28;20129;-71
2022/10/22 11:42:09;;;;;;;1.60;0.80;;;;;;;;;;4984949;28;20070;-74
2022/10/22 11:44:58;;;;;;;1.52;1.00;;;;;;;;;;4986939;28;20046;-72
2022/10/22 11:47:26;;;;;;;4.65;1.00;;;;;;;;;;4983191;28;20052;-74
2022/10/22 11:50:18;;;;;;;1.55;1.45;;;;;;;;;;4994176;28;20049;-73
2022/10/22 11:53:01;;;;;;;8.23;2.22;;;;;;;;;;4985831;28;20565;-73
2022/10/22 11:55:33;;;;;;;3.80;1.20;;;;;;;;;;4983998;28;20046;-74
2022/10/22 11:58:00;;;;;;;2.00;1.17;;;;;;;;;;4987517;28;20052;-75
2022/10/22 12:00:44;;;;;;;1.60;0.73;;;;;;;;;;4990457;28;20813;-71
2022/10/22 12:03:22;;;;;;;3.28;0.85;;;;;;;;;;4982376;28;20058;-71
2022/10/22 12:06:02;;;;;;;4.57;0.85;;;;;;;;;;4998908;28;20061;-71
2022/10/22 12:08:28;;;;;;;0.65;0.60;;;;;;;;;;4996389;28;20120;-71
2022/10/22 12:11:03;;;;;;;0.98;0.70;;;;;;;;;;4981136;28;20502;-70
2022/10/22 12:14:06;;;;;;;0.57;0.50;;;;;;;;;;4979795;28;20537;-70
2022/10/22 12:16:31;;;;;;;4.78;0.65;;;;;;;;;;4983393;28;20042;-71
2022/10/22 12:19:13;;;;;;;3.20;0.73;;;;;;;;;;4983203;28;20403;-70
2022/10/22 12:21:42;;;;;;;0.90;0.70;;;;;;;;;;4983160;28;20049;-71
2022/10/22 12:24:14;;;;;;;0.77;0.77;;;;;;;;;;4982340;28;20042;-71
2022/10/22 12:26:39;;;;;;;1.58;0.80;;;;;;;;;;4988546;28;20078;-71
2022/10/22 12:29:10;;;;;;;0.77;0.75;;;;;;;;;;4991256;28;20042;-71
2022/10/22 12:31:38;;;;;;;1.77;1.15;;;;;;;;;;4991351;28;20116;-71
2022/10/22 12:34:04;;;;;;;0.98;0.90;;;;;;;;;;4989780;28;20498;-71
2022/10/22 12:40:21;;;;;;;4.30;0.68;;;;;;;;;;4987449;28;20129;-71
2022/10/22 12:42:52;;;;;;;1.05;0.80;;;;;;;;;;4991712;28;20046;-71
2022/10/22 12:45:18;;;;;;;1.02;0.90;;;;;;;;;;4992016;28;20061;-72
2022/10/22 12:47:50;;;;;;;0.70;0.70;;;;;;;;;;4989933;28;20050;-74
2022/10/22 12:50:22;;;;;;;2.10;1.23;;;;;;;;;;4987167;28;20050;-71
2022/10/22 12:52:48;;;;;;;2.70;1.10;;;;;;;;;;4990207;28;20039;-70
2022/10/22 12:55:21;;;;;;;5.30;1.33;;;;;;;;;;4987342;28;20109;-71
2022/10/22 12:57:48;;;;;;;1.88;1.30;;;;;;;;;;4982248;28;20050;-72
2022/10/22 13:00:31;;;;;;;2.03;1.10;;;;;;;;;;4982659;28;20124;-73
2022/10/22 13:03:05;;;;;;;1.40;1.30;;;;;;;;;;4985880;28;20632;-71
2022/10/22 13:05:37;;;;;;;6.95;1.23;;;;;;;;;;4983024;28;20057;-72
2022/10/22 13:08:16;;;;;;;1.77;1.48;;;;;;;;;;4983741;28;20062;-71
2022/10/22 13:10:49;;;;;;;5.85;1.60;;;;;;;;;;4986914;28;20056;-74
2022/10/22 13:14:00;;;;;;;1.60;1.48;;;;;;;;;;4985068;28;20051;-74
2022/10/22 13:16:26;;;;;;;1.35;1.25;;;;;;;;;;4941324;28;20304;-75
2022/10/22 13:18:52;;;;;;;1.42;1.30;;;;;;;;;;4942245;28;20047;-77
2022/10/22 13:21:27;;;;;;;2.15;1.45;;;;;;;;;;4953559;28;20051;-73
2022/10/22 13:23:56;;;;;;;1.85;1.50;;;;;;;;;;4990422;28;20409;-70
2022/10/22 13:26:23;;;;;;;1.33;1.20;;;;;;;;;;4988299;28;20104;-73
2022/10/22 13:28:55;;;;;;;1.67;1.58;;;;;;;;;;4994980;28;20052;-72
2022/10/22 13:31:26;;;;;;;1.20;1.10;;;;;;;;;;4988724;28;20042;-70
2022/10/22 13:33:58;;;;;;;1.20;1.10;;;;;;;;;;4987332;28;20548;-74
2022/10/22 13:36:23;;;;;;;1.70;1.23;;;;;;;;;;4995448;28;20046;-73
2022/10/22 13:38:49;;;;;;;2.25;1.13;;;;;;;;;;4985451;28;20100;-69
2022/10/22 13:41:22;;;;;;;1.52;1.00;;;;;;;;;;4982494;28;20090;-74
2022/10/22 13:43:48;;;;;;;1.13;0.88;;;;;;;;;;4993527;28;20104;-72
2022/10/22 13:46:14;;;;;;;2.38;1.00;;;;;;;;;;4994518;28;20046;-73
2022/10/22 13:48:40;;;;;;;2.15;1.05;;;;;;;;;;4998123;28;20073;-71
2022/10/22 13:51:35;;;;;;;4.68;0.73;;;;;;;;;;4996720;28;20070;-74
2022/10/22 13:54:02;;;;;;;0.70;0.70;;;;;;;;;;4979536;28;20825;-69
2022/10/22 13:56:28;;;;;;;1.58;0.65;;;;;;;;;;4987902;28;20041;-69
2022/10/22 13:59:34;;;;;;;0.80;0.70;;;;;;;;;;4967381;28;20046;-68
2022/10/22 14:02:05;;;;;;;4.75;1.30;;;;;;;;;;4982271;28;20392;-68
2022/10/22 14:04:32;;;;;;;2.55;0.95;;;;;;;;;;4967749;28;20446;-71
2022/10/22 14:06:59;;;;;;;0.85;0.50;;;;;;;;;;4967545;28;20106;-69
2022/10/22 14:09:25;;;;;;;1.75;0.68;;;;;;;;;;4968150;28;20062;-69
2022/10/22 14:11:51;;;;;;;6.90;0.60;;;;;;;;;;4932353;28;20347;-69
2022/10/22 14:14:17;;;;;;;3.03;0.50;;;;;;;;;;4891232;28;20137;-68
2022/10/22 14:16:43;;;;;;;2.25;0.50;;;;;;;;;;4969004;28;20121;-69
2022/10/22 14:19:14;;;;;;;1.30;0.40;;;;;;;;;;4966570;28;20050;-69
2022/10/22 14:21:39;;;;;;;7.63;0.95;;;;;;;;;;4967453;28;20051;-69
2022/10/22 14:24:05;;;;;;;1.45;0.40;;;;;;;;;;4967398;28;20121;-69
2022/10/22 14:26:32;;;;;;;1.60;0.60;;;;;;;;;;4950679;28;20049;-71
2022/10/22 14:28:59;;;;;;;1.63;0.68;;;;;;;;;;4966870;28;20097;-70
2022/10/22 14:31:25;;;;;;;5.05;0.52;;;;;;;;;;4971107;28;20057;-69
2022/10/22 14:33:50;;;;;;;4.35;0.95;;;;;;;;;;4968068;28;20459;-70
2022/10/22 14:36:18;;;;;;;3.10;1.45;;;;;;;;;;4968528;28;20057;-72
2022/10/22 14:38:45;;;;;;;6.00;1.27;;;;;;;;;;4952227;28;20050;-70
2022/10/22 14:41:24;;;;;;;3.33;0.88;;;;;;;;;;4967965;28;20047;-70
2022/10/22 14:43:51;;;;;;;1.58;0.50;;;;;;;;;;4967412;28;20795;-70
2022/10/22 14:46:18;;;;;;;2.10;0.90;;;;;;;;;;4966785;28;20061;-72
2022/10/22 14:48:44;;;;;;;3.45;0.85;;;;;;;;;;4967178;28;20061;-70
2022/10/22 14:51:17;;;;;;;2.90;0.80;;;;;;;;;;4967774;28;20086;-70
2022/10/22 14:53:43;;;;;;;2.00;1.00;;;;;;;;;;4985029;28;20053;-71
2022/10/22 14:56:15;;;;;;;1.05;0.95;;;;;;;;;;4988672;28;20038;-70
2022/10/22 14:58:40;;;;;;;;;;;;;;;;;;4990085;28;20038;-70
2022/10/22 15:01:07;;;;;;;1.02;0.93;;;;;;;;;;4989519;28;19918;-69
2022/10/22 15:03:33;;;;;;;1.55;1.23;;;;;;;;;;4993316;28;20054;-69
2022/10/22 15:05:59;;;;;;;1.33;1.15;;;;;;;;;;4989030;28;20038;-70
2022/10/22 15:08:26;;;;;;;2.05;1.52;;;;;;;;;;4988677;28;20063;-69